Time;durP1;ratioP1;P1;durP2;ratioP2;P2;SDS_P1;SDS_P2;PMS_P1;PMS_P2;Temp;Humidity;BMP_temperature;BMP_pressure;BME280_temperature;BME280_humidity;BME280_pressure;Samples;Min_cycle;Max_cycle;Signal;HPM_P1;HPM_P2
2021/10/09 00:02:13;;;;;;;22.80;19.35;;;;;;;9.77;100.00;103189.47;4795958;30;20019;-83
2021/10/09 00:04:40;;;;;;;22.67;18.95;;;;;;;9.64;100.00;103176.25;4809732;29;20046;-82
2021/10/09 00:07:08;;;;;;;20.75;18.38;;;;;;;9.62;100.00;103172.81;4811133;29;20058;-83
2021/10/09 00:09:54;;;;;;;24.42;18.73;;;;;;;10.23;100.00;103273.28;4808593;29;20012;-84
2021/10/09 00:12:21;;;;;;;23.13;19.08;;;;;;;10.49;100.00;103306.81;4795913;30;20065;-83
2021/10/09 00:14:48;;;;;;;23.30;19.10;;;;;;;10.76;100.00;103357.38;4810756;29;20074;-83
2021/10/09 00:17:15;;;;;;;25.30;19.48;;;;;;;9.60;100.00;103169.44;4793092;30;20023;-83
2021/10/09 00:19:41;;;;;;;27.63;19.60;;;;;;;10.09;100.00;103261.06;4811255;29;20015;-83
2021/10/09 00:22:07;;;;;;;24.85;18.25;;;;;;;9.63;100.00;103184.44;4794912;30;20016;-83
2021/10/09 00:24:33;;;;;;;23.90;19.42;;;;;;;9.68;100.00;103198.34;4810728;29;20083;-83
2021/10/09 00:26:58;;;;;;;21.60;19.08;;;;;;;9.91;100.00;103239.34;4795357;30;20039;-83
2021/10/09 00:29:24;;;;;;;22.33;18.52;;;;;;;9.48;100.00;103164.28;4810631;29;20059;-83
2021/10/09 00:31:50;;;;;;;22.90;18.38;;;;;;;9.44;100.00;103170.88;4780520;29;20087;-83
2021/10/09 00:34:15;;;;;;;23.75;18.52;;;;;;;10.55;100.00;103352.03;4810518;29;20046;-83
2021/10/09 00:36:41;;;;;;;22.38;18.42;;;;;;;9.46;100.00;103177.84;4808677;29;20092;-83
2021/10/09 00:39:07;;;;;;;24.10;18.83;;;;;;;10.24;100.00;103304.59;4809400;29;20011;-82
2021/10/09 00:41:33;;;;;;;22.02;18.00;;;;;;;9.73;100.00;103232.88;4795656;29;20042;-83
2021/10/09 00:44:15;;;;;;;20.20;17.42;;;;;;;9.31;100.00;103166.59;4793091;30;20086;-83
2021/10/09 00:46:46;;;;;;;22.33;18.63;;;;;;;10.44;100.00;103357.53;4811155;29;20027;-82
2021/10/09 00:49:16;;;;;;;22.33;18.90;;;;;;;9.67;100.00;103233.41;4800982;29;20028;-82
2021/10/09 00:51:46;;;;;;;23.92;19.17;;;;;;;10.03;100.00;103299.25;4807400;29;20441;-82
2021/10/09 00:54:14;;;;;;;22.90;20.23;;;;;;;9.57;100.00;103225.28;4809246;29;20027;-82
2021/10/09 00:56:41;;;;;;;22.52;19.17;;;;;;;9.23;100.00;103181.66;4797917;30;20041;-83
2021/10/09 01:01:43;;;;;;;24.40;20.10;;;;;;;10.32;100.00;103354.09;5143388;24;20410;-83
2021/10/09 01:04:10;;;;;;;24.77;20.08;;;;;;;9.55;100.00;103246.09;4798476;29;20027;-83
2021/10/09 01:06:36;;;;;;;27.75;20.98;;;;;;;9.44;100.00;103227.31;4798400;29;20111;-83
2021/10/09 01:09:05;;;;;;;26.83;21.33;;;;;;;9.61;100.00;103257.16;4798246;29;20027;-84
2021/10/09 01:11:32;;;;;;;30.58;23.38;;;;;;;9.26;100.00;103189.47;4798812;29;20038;-83
2021/10/09 01:13:57;;;;;;;32.30;25.27;;;;;;;9.22;100.00;103198.78;4814170;29;20071;-83
2021/10/09 01:16:29;;;;;;;33.58;25.45;;;;;;;9.18;100.00;103184.75;4814270;29;20018;-83
2021/10/09 01:18:57;;;;;;;33.45;25.92;;;;;;;9.55;100.00;103246.09;4811229;29;20031;-82
2021/10/09 01:21:23;;;;;;;43.13;27.80;;;;;;;9.32;100.00;103207.75;4872346;24;20108;-82
2021/10/09 01:23:50;;;;;;;41.42;28.95;;;;;;;9.56;100.00;103250.47;4811063;29;20069;-83
2021/10/09 01:26:15;;;;;;;37.42;27.55;;;;;;;9.62;100.00;103263.38;4813745;29;20039;-83
2021/10/09 01:28:46;;;;;;;42.00;28.30;;;;;;;9.26;100.00;103203.75;4805564;29;20016;-83
2021/10/09 01:31:28;;;;;;;39.92;28.42;;;;;;;10.00;100.00;103321.91;4780466;30;20036;-83
2021/10/09 01:33:54;;;;;;;36.30;27.40;;;;;;;9.80;100.00;103287.81;4802984;29;20041;-82
2021/10/09 01:36:21;;;;;;;34.75;26.30;;;;;;;10.18;100.00;103346.34;4797968;30;20023;-83
2021/10/09 01:38:52;;;;;;;34.25;26.67;;;;;;;9.52;100.00;103257.09;4797975;29;20090;-83
2021/10/09 01:41:19;;;;;;;37.72;28.13;;;;;;;9.52;100.00;103243.66;4798153;29;20020;-83
2021/10/09 01:43:45;;;;;;;34.58;26.65;;;;;;;9.01;100.00;103172.78;4797747;29;20019;-83
2021/10/09 01:46:11;;;;;;;38.05;27.77;;;;;;;9.51;100.00;103250.88;4798030;29;20019;-84
2021/10/09 01:48:38;;;;;;;35.75;26.52;;;;;;;10.15;100.00;103340.38;4811913;29;20046;-83
2021/10/09 01:51:05;;;;;;;34.97;27.50;;;;;;;9.08;100.00;103176.63;4796841;30;20026;-83
2021/10/09 01:53:31;;;;;;;33.17;27.13;;;;;;;9.11;100.00;103188.97;4797689;30;20057;-84
2021/10/09 01:55:58;;;;;;;37.45;27.20;;;;;;;9.40;100.00;103218.69;4797315;30;20034;-83
2021/10/09 01:58:24;;;;;;;33.90;27.30;;;;;;;9.23;100.00;103205.84;4797894;29;20082;-83
2021/10/09 02:00:50;;;;;;;35.50;26.70;;;;;;;9.04;100.00;103177.91;4796667;29;20035;-82
2021/10/09 02:03:18;;;;;;;31.00;26.27;;;;;;;10.10;100.00;103343.50;4791456;29;20086;-82
2021/10/09 02:05:44;;;;;;;36.63;27.42;;;;;;;9.35;100.00;103235.22;4797726;29;20023;-84
2021/10/09 02:10:52;;;;;;;30.83;24.75;;;;;;;9.06;100.00;103181.28;5490827;24;20153;-82
2021/10/09 02:13:25;;;;;;;36.13;26.08;;;;;;;9.44;100.00;103256.88;5005579;24;20040;-82
2021/10/09 02:15:58;;;;;;;29.33;25.15;;;;;;;9.64;100.00;103277.56;4795750;30;20012;-84
2021/10/09 02:26:28;;;;;;;31.27;23.80;;;;;;;9.33;100.00;103241.69;4813317;29;20064;-83
2021/10/09 02:28:53;;;;;;;34.17;25.38;;;;;;;9.09;100.00;103180.16;4782348;30;20291;-84
2021/10/09 02:31:19;;;;;;;32.97;24.33;;;;;;;9.97;100.00;103329.41;4813538;29;20012;-83
2021/10/09 02:33:44;;;;;;;29.70;25.15;;;;;;;8.89;100.00;103163.91;5006418;24;20034;-83
2021/10/09 02:38:45;;;;;;;33.03;24.15;;;;;;;9.63;100.00;103267.75;5437540;24;20047;-84
2021/10/09 02:41:12;;;;;;;36.70;25.75;;;;;;;9.98;100.00;103337.31;4797790;29;20147;-83
2021/10/09 02:43:38;;;;;;;32.25;25.67;;;;;;;9.22;100.00;103222.97;4997451;24;20070;-84
2021/10/09 02:46:06;;;;;;;32.65;25.02;;;;;;;9.22;100.00;103207.69;5063013;24;20101;-84
2021/10/09 02:48:32;;;;;;;32.55;25.42;;;;;;;8.98;100.00;103177.56;4794805;30;20042;-84
2021/10/09 02:50:57;;;;;;;29.17;24.30;;;;;;;10.01;100.00;103334.38;4793155;30;20023;-84
2021/10/09 02:55:58;;;;;;;34.15;24.30;;;;;;;9.68;100.00;103268.22;5244568;24;20043;-83
2021/10/09 02:58:24;;;;;;;30.17;24.27;;;;;;;9.09;100.00;103177.50;4794196;30;20051;-84
2021/10/09 03:00:50;;;;;;;36.17;23.77;;;;;;;10.05;100.00;103318.81;4785132;29;20019;-84
2021/10/09 03:03:15;;;;;;;26.73;22.10;;;;;;;9.07;100.00;103160.63;4812498;29;20071;-83
2021/10/09 03:11:05;;;;;;;21.73;16.95;;;;;;;9.66;100.00;103237.94;5051634;24;20082;-84
2021/10/09 03:13:30;;;;;;;20.52;16.48;;;;;;;9.74;100.00;103261.47;4793516;29;20028;-84
2021/10/09 03:15:56;;;;;;;17.08;14.50;;;;;;;9.28;100.00;103190.19;4793424;29;20043;-83
2021/10/09 03:18:22;;;;;;;19.45;14.07;;;;;;;9.36;100.00;103198.44;4779394;30;20012;-83
2021/10/09 03:23:23;;;;;;;20.95;14.38;;;;;;;9.14;100.00;103156.47;5596825;24;20051;-83
2021/10/09 03:25:49;;;;;;;16.85;13.10;;;;;;;9.22;100.00;103166.53;4912685;24;20114;-83
2021/10/09 03:28:14;;;;;;;20.98;13.55;;;;;;;9.40;100.00;103186.44;4812030;29;20023;-84
2021/10/09 03:30:40;;;;;;;20.08;14.32;;;;;;;9.28;100.00;103171.41;4787620;30;20032;-83
2021/10/09 03:33:06;;;;;;;19.90;14.77;;;;;;;9.43;100.00;103193.38;4794430;30;20072;-83
2021/10/09 03:35:31;;;;;;;18.20;14.20;;;;;;;9.49;100.00;103195.53;4787633;29;20015;-83
2021/10/09 03:37:58;;;;;;;22.25;14.20;;;;;;;9.93;100.00;103244.56;4797450;29;20035;-83
2021/10/09 03:43:26;;;;;;;17.85;14.20;;;;;;;9.45;100.00;103170.78;4967322;24;20103;-83
2021/10/09 03:53:57;;;;;;;17.45;13.60;;;;;;;10.17;100.00;103261.25;5495107;24;20048;-83
2021/10/09 03:56:22;;;;;;;19.67;14.45;;;;;;;10.17;100.00;103263.94;4832719;29;20066;-84
2021/10/09 04:06:33;;;;;;;16.33;12.93;;;;;;;10.02;100.00;103211.47;5588029;24;20048;-84
2021/10/09 04:08:59;;;;;;;15.65;12.15;;;;;;;10.45;100.00;103280.34;4783190;30;20114;-83
2021/10/09 04:39:47;;;;;;;18.02;12.23;;;;;;;10.01;100.00;103170.28;4812124;29;20039;-83
2021/10/09 04:42:12;;;;;;;13.40;10.80;;;;;;;10.19;100.00;103183.91;4798224;30;20051;-83
2021/10/09 04:44:38;;;;;;;14.27;10.18;;;;;;;10.30;100.00;103217.97;4814251;29;20046;-83
2021/10/09 04:47:03;;;;;;;13.27;10.23;;;;;;;10.36;100.00;103222.78;4797799;30;20134;-83
2021/10/09 04:49:34;;;;;;;18.25;10.48;;;;;;;10.31;100.00;103196.31;4823833;29;20027;-83
2021/10/09 04:52:00;;;;;;;11.20;9.65;;;;;;;10.35;100.00;103202.25;4813606;30;20107;-82
2021/10/09 04:54:26;;;;;;;18.27;10.43;;;;;;;10.26;100.00;103176.16;4811869;30;20067;-82
2021/10/09 04:56:51;;;;;;;15.38;10.27;;;;;;;10.29;100.00;103179.44;4812751;30;20073;-82
2021/10/09 04:59:17;;;;;;;14.38;10.23;;;;;;;11.16;100.00;103321.41;4797434;30;20039;-82
2021/10/09 05:01:43;;;;;;;15.68;10.75;;;;;;;10.16;100.00;103159.13;4811777;30;20039;-83
2021/10/09 05:04:08;;;;;;;13.07;10.23;;;;;;;10.16;100.00;103156.44;4793918;30;20023;-83
2021/10/09 05:06:34;;;;;;;17.30;11.75;;;;;;;10.22;100.00;103169.34;4793756;30;20020;-83
2021/10/09 05:09:00;;;;;;;17.23;11.38;;;;;;;10.40;100.00;103199.13;4804086;30;20032;-81
2021/10/09 05:11:25;;;;;;;15.77;11.45;;;;;;;10.20;100.00;103165.91;4794610;30;20042;-83
2021/10/09 05:13:51;;;;;;;15.95;12.48;;;;;;;10.14;100.00;103158.44;4801078;30;20050;-83
2021/10/09 05:16:17;;;;;;;18.83;13.10;;;;;;;10.26;100.00;103160.88;4812361;29;20497;-82
2021/10/09 05:18:42;;;;;;;15.30;12.38;;;;;;;10.53;100.00;103218.59;4796579;30;20031;-83
2021/10/09 05:21:09;;;;;;;16.88;11.85;;;;;;;10.53;100.00;103205.97;4820656;29;20035;-83
2021/10/09 05:23:37;;;;;;;15.57;11.90;;;;;;;10.36;100.00;103190.50;4815655;29;20015;-82
2021/10/09 05:26:04;;;;;;;14.85;12.05;;;;;;;10.29;100.00;103165.13;4829257;29;20078;-83
2021/10/09 05:28:47;;;;;;;19.83;12.23;;;;;;;10.29;100.00;103182.13;4809306;29;20008;-83
2021/10/09 05:31:24;;;;;;;14.73;11.50;;;;;;;10.11;100.00;103154.19;4784332;29;20023;-83
2021/10/09 05:33:52;;;;;;;14.60;10.75;;;;;;;10.06;100.00;103142.97;4794099;29;20095;-82
2021/10/09 05:48:16;;;;;;;14.63;10.93;;;;;;;11.23;100.00;103327.09;5646013;24;20129;-84
2021/10/09 05:58:48;;;;;;;11.55;9.30;;;;;;;11.29;100.00;103335.47;5524897;24;20042;-82
2021/10/09 06:01:43;;;;;;;14.40;9.52;;;;;;;10.41;100.00;103193.63;4816343;29;20072;-82
2021/10/09 06:45:05;;;;;;;12.90;8.63;;;;;;;11.59;100.00;103327.31;4832834;29;20072;-79
2021/10/09 07:00:50;;;;;;;8.45;6.45;;;;;;;11.85;100.00;103327.59;4815544;29;20106;-79
2021/10/09 07:03:17;;;;;;;8.52;5.93;;;;;;;11.95;100.00;103336.50;4807156;29;20030;-80
2021/10/09 07:05:43;;;;;;;9.63;5.80;;;;;;;11.99;100.00;103344.19;4824403;29;20029;-82
2021/10/09 07:08:09;;;;;;;8.35;6.00;;;;;;;11.97;100.00;103326.44;4808054;29;20378;-82
2021/10/09 07:10:40;;;;;;;7.18;5.38;;;;;;;12.11;100.00;103344.00;4840079;29;20035;-80
2021/10/09 07:13:06;;;;;;;7.88;5.78;;;;;;;12.00;100.00;103323.44;4825127;29;20037;-82
2021/10/09 07:15:32;;;;;;;6.85;5.65;;;;;;;12.20;100.00;103348.53;4838153;29;20030;-80
2021/10/09 07:17:58;;;;;;;9.13;5.75;;;;;;;12.17;100.00;103338.03;4833443;29;20093;-80
2021/10/09 07:20:23;;;;;;;8.38;5.50;;;;;;;12.18;100.00;103335.16;4817019;29;20073;-81
2021/10/09 07:22:50;;;;;;;7.72;5.35;;;;;;;12.29;100.00;103346.81;4833524;29;20031;-80
2021/10/09 07:25:16;;;;;;;8.88;5.70;;;;;;;12.19;100.00;103338.75;4802966;29;20098;-80
2021/10/09 07:27:42;;;;;;;6.13;4.90;;;;;;;12.31;100.00;103351.03;4803650;29;20030;-80
2021/10/09 07:30:08;;;;;;;6.40;4.80;;;;;;;12.30;100.00;103357.44;4798862;29;20042;-81
2021/10/09 07:32:34;;;;;;;5.85;5.10;;;;;;;12.21;100.00;103340.25;4807044;29;20373;-80
2021/10/09 07:34:59;;;;;;;11.35;5.38;;;;;;;12.34;100.00;103358.00;4795326;29;20046;-79
2021/10/09 07:37:25;;;;;;;7.65;5.15;;;;;;;12.32;100.00;103363.56;4806019;29;20068;-78
2021/10/09 07:39:51;;;;;;;9.70;5.15;;;;;;;12.39;100.00;103363.81;4783543;29;20449;-79
2021/10/09 07:42:16;;;;;;;7.78;4.97;;;;;;;12.48;100.00;103362.88;4808891;29;20030;-79
2021/10/09 07:44:42;;;;;;;6.68;5.22;;;;;;;12.52;100.00;103366.19;4822366;29;20042;-78
2021/10/09 07:47:08;;;;;;;6.22;4.80;;;;;;;12.55;100.00;103369.44;4804778;29;20030;-79
2021/10/09 07:49:36;;;;;;;6.72;4.53;;;;;;;12.53;100.00;103360.59;4792877;29;20041;-78
2021/10/09 07:52:02;;;;;;;7.38;4.50;;;;;;;12.49;100.00;103348.41;4823012;29;20473;-78
2021/10/09 07:54:27;;;;;;;7.18;4.88;;;;;;;12.64;100.00;103362.25;4793921;29;20096;-79
2021/10/09 07:56:52;;;;;;;6.43;4.40;;;;;;;12.73;100.00;103372.16;4807769;29;20168;-78
2021/10/09 07:59:19;;;;;;;6.60;4.55;;;;;;;12.81;100.00;103366.84;4790785;29;20059;-79
2021/10/09 08:01:45;;;;;;;7.38;4.60;;;;;;;12.84;100.00;103365.69;4807424;29;20138;-78
2021/10/09 08:04:14;;;;;;;7.05;4.57;;;;;;;12.90;100.00;103359.69;4791436;29;20041;-79
2021/10/09 08:06:41;;;;;;;6.43;4.47;;;;;;;12.88;100.00;103345.47;4765804;29;20045;-78
2021/10/09 08:09:06;;;;;;;7.32;4.80;;;;;;;12.94;100.00;103351.13;4791177;29;20062;-78
2021/10/09 08:11:32;;;;;;;9.38;5.38;;;;;;;13.02;100.00;103361.19;4789806;29;20127;-78
2021/10/09 08:13:59;;;;;;;7.22;5.70;;;;;;;13.07;100.00;103363.41;4774595;29;20107;-78
2021/10/09 08:16:24;;;;;;;8.88;5.30;;;;;;;13.06;100.00;103370.69;4806688;29;20038;-79
2021/10/09 08:18:49;;;;;;;7.05;5.30;;;;;;;13.08;100.00;103365.97;4807182;29;20046;-79
2021/10/09 08:21:16;;;;;;;6.65;5.60;;;;;;;13.07;100.00;103358.00;4775719;29;20112;-78
2021/10/09 08:23:53;;;;;;;7.93;6.40;;;;;;;13.13;100.00;103363.66;4792793;29;20485;-77
2021/10/09 08:37:20;;;;;;;7.35;5.57;;;;;;;13.15;100.00;103372.47;4808687;29;20045;-79
2021/10/09 08:39:46;;;;;;;10.23;6.35;;;;;;;13.11;100.00;103346.75;4792988;29;20034;-79
2021/10/09 08:42:14;;;;;;;9.50;8.10;;;;;;;13.35;100.00;103375.91;4809891;29;20049;-80
2021/10/09 08:44:40;;;;;;;8.77;7.05;;;;;;;13.34;100.00;103355.28;4818576;29;20039;-80
2021/10/09 08:47:08;;;;;;;9.55;7.35;;;;;;;13.57;100.00;103374.56;4794123;29;20114;-80
2021/10/09 08:49:35;;;;;;;12.02;7.85;;;;;;;13.50;99.92;103351.84;4790734;29;20035;-79
2021/10/09 08:52:04;;;;;;;14.07;8.30;;;;;;;13.62;100.00;103363.28;4779536;29;20027;-82
2021/10/09 08:54:37;;;;;;;8.07;7.28;;;;;;;13.72;99.52;103374.03;4808692;29;20034;-81
2021/10/09 08:57:13;;;;;;;7.95;5.63;;;;;;;13.72;99.05;103366.75;4821954;29;20458;-83
2021/10/09 08:59:47;;;;;;;8.05;5.70;;;;;;;13.75;98.68;103384.53;4824786;29;20058;-81
2021/10/09 09:02:22;;;;;;;8.95;6.22;;;;;;;13.78;98.36;103389.63;4824383;29;20035;-79
2021/10/09 09:35:03;;;;;;;5.82;4.97;;;;;;;14.02;95.91;103394.38;4823904;29;20041;-81
2021/10/09 09:40:05;;;;;;;7.70;4.75;;;;;;;13.98;95.12;103401.13;4827870;29;20361;-81
2021/10/09 09:42:31;;;;;;;6.28;4.93;;;;;;;13.98;94.55;103401.97;4827127;29;20034;-82
2021/10/09 09:44:59;;;;;;;10.68;5.85;;;;;;;13.78;94.31;103373.41;4798322;29;20062;-79
2021/10/09 09:47:42;;;;;;;10.85;7.72;;;;;;;13.93;94.09;103406.16;4828445;29;20121;-79
2021/10/09 09:50:11;;;;;;;7.85;5.38;;;;;;;13.91;94.02;103391.91;4796080;29;20053;-79
2021/10/09 09:52:39;;;;;;;7.18;4.72;;;;;;;13.97;93.60;103404.81;4827546;29;20030;-82
2021/10/09 09:55:08;;;;;;;9.15;4.30;;;;;;;14.00;93.44;103402.63;4825221;29;20036;-81
2021/10/09 09:57:36;;;;;;;5.68;4.63;;;;;;;14.03;93.50;103410.44;4827939;29;20062;-82
2021/10/09 10:00:08;;;;;;;8.25;5.30;;;;;;;14.02;93.25;103406.06;4810546;29;20619;-81
2021/10/09 10:02:39;;;;;;;5.65;5.05;;;;;;;13.99;92.85;103400.09;4810320;29;20179;-82
2021/10/09 10:05:05;;;;;;;6.85;6.15;;;;;;;14.00;92.68;103405.34;4827762;29;20026;-81
2021/10/09 10:07:34;;;;;;;6.22;4.72;;;;;;;13.99;92.66;103390.13;4796539;29;20102;-82
2021/10/09 10:09:59;;;;;;;5.65;4.25;;;;;;;14.09;92.86;103404.41;4826140;29;20420;-82
2021/10/09 10:12:25;;;;;;;7.63;5.50;;;;;;;14.06;92.70;103395.75;4801020;29;20056;-82
2021/10/09 10:14:52;;;;;;;6.32;5.07;;;;;;;14.12;92.38;103396.97;4812147;29;20477;-82
2021/10/09 10:17:42;;;;;;;6.72;4.43;;;;;;;13.97;91.31;103378.63;4827802;29;20080;-82
2021/10/09 10:20:09;;;;;;;6.50;4.88;;;;;;;14.18;91.78;103396.34;4792491;29;20070;-82
2021/10/09 10:22:34;;;;;;;8.25;5.72;;;;;;;14.18;91.89;103389.06;4800311;29;20072;-82
2021/10/09 10:25:00;;;;;;;9.13;5.68;;;;;;;14.23;91.38;103383.16;4813191;29;20434;-81
2021/10/09 10:27:45;;;;;;;5.03;4.28;;;;;;;14.18;91.25;103375.53;4809118;29;20062;-81
2021/10/09 10:30:16;;;;;;;;;;;;;;;14.30;91.79;103393.22;4821132;29;20051;-82
2021/10/09 10:32:52;;;;;;;6.78;4.68;;;;;;;14.36;91.59;103394.41;4829423;29;20267;-82
2021/10/09 10:35:30;;;;;;;9.35;6.93;;;;;;;14.41;90.70;103392.06;4804225;29;20117;-79
2021/10/09 10:38:01;;;;;;;8.02;6.13;;;;;;;14.42;90.70;103388.34;4811686;29;20171;-80
2021/10/09 10:40:46;;;;;;;8.20;5.10;;;;;;;14.50;90.31;103388.44;4818948;29;20469;-80
2021/10/09 10:46:24;;;;;;;6.30;5.00;;;;;;;14.40;91.11;103393.06;4836061;29;19942;-80
2021/10/09 10:57:00;;;;;;;9.30;6.30;;;;;;;14.08;91.53;103381.06;4829596;29;20062;-79
2021/10/09 10:59:52;;;;;;;10.40;7.80;;;;;;;13.98;92.05;103380.31;4810849;29;20054;-79
2021/10/09 11:02:22;;;;;;;9.38;7.68;;;;;;;14.03;91.83;103382.53;4834573;29;20041;-79
2021/10/09 11:04:54;;;;;;;9.93;8.77;;;;;;;14.02;91.58;103373.56;4810090;29;20424;-79
2021/10/09 11:07:25;;;;;;;11.63;10.18;;;;;;;14.08;90.96;103382.91;4815579;29;20080;-79
2021/10/09 11:09:51;;;;;;;13.43;12.02;;;;;;;14.05;91.32;103380.53;4802678;29;20036;-78
2021/10/09 11:12:21;;;;;;;16.52;12.05;;;;;;;14.00;91.02;103362.03;4793206;29;20053;-79
2021/10/09 11:14:46;;;;;;;6.93;6.20;;;;;;;14.02;91.01;103380.84;4808193;29;20030;-78
2021/10/09 11:17:12;;;;;;;8.77;6.43;;;;;;;14.03;91.22;103374.41;4823539;29;20362;-79
2021/10/09 11:19:49;;;;;;;12.52;11.23;;;;;;;13.84;90.85;103360.09;4807665;29;20046;-79
2021/10/09 11:22:20;;;;;;;14.52;10.60;;;;;;;13.96;90.79;103371.47;4803328;29;20054;-79
2021/10/09 11:24:47;;;;;;;20.75;18.60;;;;;;;13.82;89.82;103358.53;4807226;29;20030;-79
2021/10/09 11:27:15;;;;;;;12.82;11.43;;;;;;;13.82;89.50;103342.31;4822544;29;20109;-79
2021/10/09 11:29:42;;;;;;;7.82;5.82;;;;;;;14.03;88.68;103372.53;4787514;29;20042;-79
2021/10/09 11:32:11;;;;;;;5.32;4.53;;;;;;;13.94;88.47;103373.53;4807875;29;20406;-79
2021/10/09 11:34:54;;;;;;;9.77;6.95;;;;;;;14.02;88.59;103370.84;4810525;29;20026;-79
2021/10/09 11:37:19;;;;;;;8.68;5.05;;;;;;;13.96;87.43;103352.53;4790516;29;20422;-79
2021/10/09 11:39:51;;;;;;;10.45;7.93;;;;;;;14.04;87.80;103344.47;4787303;29;20030;-79
2021/10/09 11:42:21;;;;;;;6.93;5.25;;;;;;;14.12;87.66;103351.78;4823083;29;20026;-78
2021/10/09 11:45:14;;;;;;;5.90;5.28;;;;;;;14.29;87.26;103372.53;4804301;29;20049;-78
2021/10/09 11:56:04;;;;;;;7.75;4.57;;;;;;;14.27;87.05;103352.03;4804540;29;20095;-83
2021/10/09 11:58:31;;;;;;;;;;;;;;;14.11;87.06;103352.81;4798094;29;20060;-82
2021/10/09 12:00:56;;;;;;;9.65;7.85;;;;;;;14.13;88.11;103355.34;4793638;29;19957;-82
2021/10/09 12:03:51;;;;;;;8.98;8.00;;;;;;;14.11;87.39;103347.41;4794751;29;20370;-81
2021/10/09 12:06:16;;;;;;;11.07;8.77;;;;;;;14.08;88.21;103350.44;4789690;29;20470;-81
2021/10/09 12:09:00;;;;;;;15.02;11.07;;;;;;;14.10;87.88;103351.09;4811852;29;20353;-80
2021/10/09 12:11:29;;;;;;;9.68;8.00;;;;;;;14.15;87.31;103351.47;4793441;29;20469;-78
2021/10/09 12:14:01;;;;;;;27.15;24.58;;;;;;;14.10;87.16;103338.44;4808392;29;20122;-78
2021/10/09 12:16:45;;;;;;;22.80;20.48;;;;;;;14.07;88.53;103336.03;4825413;29;20392;-81
2021/10/09 12:19:26;;;;;;;14.57;12.98;;;;;;;14.00;89.68;103324.13;4812558;29;20100;-80
2021/10/09 12:21:52;;;;;;;21.85;19.75;;;;;;;14.14;90.83;103341.66;4796063;29;20090;-82
2021/10/09 12:24:22;;;;;;;20.05;16.77;;;;;;;14.07;90.65;103321.63;4794644;29;20027;-82
2021/10/09 12:27:17;;;;;;;11.10;9.68;;;;;;;14.15;90.59;103343.34;4775968;29;20108;-81
2021/10/09 12:30:07;;;;;;;11.97;10.77;;;;;;;14.23;90.12;103342.53;4807497;29;20034;-78
2021/10/09 12:32:48;;;;;;;9.57;8.57;;;;;;;14.27;88.67;103333.94;4801815;29;20050;-78
2021/10/09 12:35:35;;;;;;;9.15;7.38;;;;;;;14.40;88.13;103328.06;4805898;29;20042;-81
2021/10/09 12:38:09;;;;;;;9.93;8.38;;;;;;;14.42;89.24;103331.47;4803436;29;20030;-81
2021/10/09 12:40:53;;;;;;;9.68;7.43;;;;;;;14.30;89.82;103313.78;4801865;29;20183;-82
2021/10/09 12:43:21;;;;;;;10.45;8.57;;;;;;;14.40;90.87;103322.63;4801888;29;20485;-82
2021/10/09 12:45:46;;;;;;;10.90;7.43;;;;;;;14.33;91.81;103322.44;4814022;29;20030;-81
2021/10/09 12:48:13;;;;;;;11.77;7.70;;;;;;;14.24;92.58;103320.72;4823977;29;20034;-81
2021/10/09 12:50:41;;;;;;;15.75;11.60;;;;;;;14.23;93.00;103318.16;4828214;29;20522;-82
2021/10/09 12:53:07;;;;;;;10.05;8.77;;;;;;;14.21;93.43;103314.78;4806929;29;20030;-82
2021/10/09 12:55:33;;;;;;;8.50;7.60;;;;;;;14.15;93.09;103294.63;4805233;29;20035;-82
2021/10/09 12:58:09;;;;;;;9.70;7.82;;;;;;;14.24;93.07;103303.63;4826618;29;20493;-81
2021/10/09 13:00:36;;;;;;;10.77;9.63;;;;;;;14.29;93.33;103310.25;4793188;29;20059;-81
2021/10/09 13:03:02;;;;;;;12.13;9.55;;;;;;;14.39;93.28;103298.44;4822422;29;20039;-82
2021/10/09 13:05:31;;;;;;;24.60;18.27;;;;;;;14.44;93.39;103299.66;4795994;29;20042;-82
2021/10/09 13:07:58;;;;;;;14.15;9.65;;;;;;;14.43;93.32;103295.22;4815647;29;20050;-81
2021/10/09 13:10:24;;;;;;;12.18;8.95;;;;;;;14.46;93.89;103291.34;4794272;29;20049;-82
2021/10/09 13:12:51;;;;;;;12.55;10.70;;;;;;;14.41;93.81;103291.84;4763966;29;20107;-82
2021/10/09 13:15:18;;;;;;;12.02;10.10;;;;;;;14.40;94.21;103276.59;4827879;29;20072;-82
2021/10/09 13:17:45;;;;;;;12.40;11.10;;;;;;;14.51;94.08;103281.75;4810995;29;20034;-82
2021/10/09 13:20:11;;;;;;;13.15;9.75;;;;;;;14.51;93.83;103273.63;4810729;29;20027;-82
2021/10/09 13:22:36;;;;;;;11.85;9.57;;;;;;;14.49;93.96;103275.59;4811448;29;20037;-81
2021/10/09 13:25:03;;;;;;;14.95;10.77;;;;;;;14.52;94.16;103275.31;4827075;29;20038;-82
2021/10/09 13:27:28;;;;;;;13.18;9.68;;;;;;;14.46;94.91;103267.81;4810234;29;20037;-81
2021/10/09 13:29:53;;;;;;;13.38;9.68;;;;;;;14.39;95.14;103253.22;4780888;29;20118;-82
2021/10/09 13:32:19;;;;;;;13.70;11.13;;;;;;;14.43;95.01;103268.13;4809167;29;20034;-81
2021/10/09 13:34:45;;;;;;;17.63;14.80;;;;;;;14.35;95.34;103268.13;4799646;29;20514;-81
2021/10/09 13:37:20;;;;;;;15.77;11.35;;;;;;;13.99;95.65;103216.03;4805512;29;20038;-81
2021/10/09 13:39:47;;;;;;;14.60;11.00;;;;;;;14.28;96.18;103264.38;4820971;29;20034;-82
2021/10/09 13:42:12;;;;;;;14.95;12.05;;;;;;;14.19;96.10;103243.69;4792368;29;20038;-82
2021/10/09 13:44:38;;;;;;;16.48;12.02;;;;;;;14.18;96.37;103250.97;4790415;29;20055;-82
2021/10/09 13:47:04;;;;;;;17.85;12.63;;;;;;;14.15;96.60;103250.44;4802494;29;20038;-81
2021/10/09 13:49:31;;;;;;;13.75;11.68;;;;;;;13.92;97.48;103228.53;4821425;29;20729;-82
2021/10/09 13:51:56;;;;;;;16.58;12.40;;;;;;;13.80;97.68;103212.53;4805794;29;20027;-82
2021/10/09 13:54:21;;;;;;;14.40;11.55;;;;;;;13.82;98.35;103229.47;4790448;29;20033;-82
2021/10/09 13:56:48;;;;;;;17.55;12.00;;;;;;;13.86;98.62;103238.13;4797719;29;20031;-81
2021/10/09 13:59:15;;;;;;;16.08;12.40;;;;;;;13.81;98.93;103235.06;4827124;29;20050;-82
2021/10/09 14:01:42;;;;;;;20.27;14.82;;;;;;;13.77;99.19;103241.78;4809523;29;20106;-81
2021/10/09 14:04:08;;;;;;;17.27;13.55;;;;;;;13.74;99.08;103234.00;4801265;29;20811;-81
2021/10/09 14:06:33;;;;;;;15.88;13.48;;;;;;;13.43;99.15;103187.66;4826179;29;20042;-81
2021/10/09 14:08:59;;;;;;;15.15;12.20;;;;;;;13.55;99.09;103221.56;4794296;29;20106;-81
2021/10/09 14:11:25;;;;;;;15.68;12.20;;;;;;;13.63;99.35;103235.97;4805082;29;20181;-81
2021/10/09 14:13:50;;;;;;;14.77;12.27;;;;;;;13.62;99.25;103234.28;4807326;29;20385;-81
2021/10/09 14:16:16;;;;;;;15.15;12.10;;;;;;;13.62;99.34;103236.13;4806131;29;20042;-81
2021/10/09 14:18:41;;;;;;;12.50;11.18;;;;;;;13.61;99.60;103229.88;4778005;29;20035;-81
2021/10/09 14:21:07;;;;;;;13.73;11.15;;;;;;;13.48;99.35;103212.38;4800212;29;20069;-82
2021/10/09 14:23:33;;;;;;;18.80;11.73;;;;;;;13.51;100.00;103223.75;4813583;29;20107;-81
2021/10/09 14:25:58;;;;;;;15.25;10.88;;;;;;;13.48;100.00;103229.47;4825376;29;20050;-82
2021/10/09 14:28:24;;;;;;;15.80;11.27;;;;;;;13.40;100.00;103218.56;4801770;29;20045;-82
2021/10/09 14:30:50;;;;;;;16.25;11.82;;;;;;;13.41;100.00;103228.41;4829956;29;20642;-82
2021/10/09 14:33:16;;;;;;;13.73;11.32;;;;;;;13.34;100.00;103214.66;4805224;29;20027;-82
2021/10/09 14:35:43;;;;;;;12.73;9.70;;;;;;;13.32;100.00;103202.31;4819836;29;20121;-81
2021/10/09 14:38:08;;;;;;;12.50;10.77;;;;;;;13.36;100.00;103204.53;4830043;29;20030;-81
2021/10/09 14:40:34;;;;;;;13.23;10.57;;;;;;;13.38;100.00;103196.25;4816641;29;20532;-82
2021/10/09 14:42:59;;;;;;;13.98;10.10;;;;;;;13.46;100.00;103212.53;4826036;29;20031;-82
2021/10/09 14:45:26;;;;;;;11.27;9.82;;;;;;;13.33;100.00;103191.31;4796067;29;20058;-83
2021/10/09 14:47:56;;;;;;;12.23;9.45;;;;;;;13.15;100.00;103169.72;4826614;29;20037;-81
2021/10/09 15:19:38;;;;;;;20.83;12.70;;;;;;;12.99;100.00;103187.66;4809201;29;20050;-81